Time;durP1;ratioP1;P1;durP2;ratioP2;P2;SDS_P1;SDS_P2;PMS_P1;PMS_P2;Temp;Humidity;BMP_temperature;BMP_pressure;BME280_temperature;BME280_humidity;BME280_pressure;Samples;Min_cycle;Max_cycle;Signal;HPM_P1;HPM_P2
2023/04/22 00:02:19;;;;;;;11.50;6.95;;;16.70;76.40;;;;;;10889768;32;20050;-71
2023/04/22 00:08:21;;;;;;;19.77;5.70;;;16.70;76.30;;;;;;10889628;32;20043;-71
2023/04/22 00:14:24;;;;;;;6.80;4.68;;;16.70;76.20;;;;;;10904045;32;20023;-71
2023/04/22 00:20:25;;;;;;;7.57;5.75;;;16.70;76.30;;;;;;10889010;32;20070;-71
2023/04/22 00:26:29;;;;;;;6.57;4.97;;;16.70;76.30;;;;;;10902937;32;20020;-71
2023/04/22 00:32:31;;;;;;;8.63;6.60;;;16.60;76.40;;;;;;10903872;32;20024;-71
2023/04/22 00:38:33;;;;;;;7.05;5.25;;;16.60;76.50;;;;;;10903259;32;20144;-73
2023/04/22 00:44:35;;;;;;;7.43;5.18;;;16.50;76.60;;;;;;10907059;32;20031;-73
2023/04/22 00:50:37;;;;;;;7.40;4.62;;;16.50;76.70;;;;;;10909820;32;20027;-73
2023/04/22 00:56:39;;;;;;;5.68;4.10;;;16.40;76.30;;;;;;10909231;32;20053;-74
2023/04/22 01:02:41;;;;;;;5.95;3.92;;;16.30;76.40;;;;;;10909555;32;20027;-71
2023/04/22 01:08:43;;;;;;;6.32;4.35;;;16.20;76.70;;;;;;10909363;32;20041;-73
2023/04/22 01:14:45;;;;;;;6.07;3.97;;;16.20;77.00;;;;;;10879143;32;20040;-73
2023/04/22 01:20:47;;;;;;;9.32;4.22;;;16.10;77.00;;;;;;10908643;32;20036;-73
2023/04/22 01:26:53;;;;;;;14.23;4.60;;;16.10;77.00;;;;;;10908354;32;20038;-73
2023/04/22 01:32:55;;;;;;;7.95;6.28;;;16.10;77.10;;;;;;10907982;32;20019;-73
2023/04/22 01:38:57;;;;;;;6.70;4.50;;;16.00;77.20;;;;;;10908895;32;20015;-73
2023/04/22 01:45:02;;;;;;;6.75;4.72;;;16.00;77.20;;;;;;10908546;32;20054;-73
2023/04/22 01:51:04;;;;;;;7.32;4.93;;;15.80;77.20;;;;;;10907528;32;20310;-73
2023/04/22 01:57:12;;;;;;;5.85;4.05;;;15.70;77.40;;;;;;10907005;32;20463;-73
2023/04/22 02:03:14;;;;;;;5.90;4.18;;;15.70;77.10;;;;;;10907310;32;20011;-73
2023/04/22 02:09:16;;;;;;;6.50;4.30;;;15.70;77.00;;;;;;10903161;32;20082;-73
2023/04/22 02:15:19;;;;;;;6.85;4.43;;;15.70;76.90;;;;;;10892554;32;20057;-73
2023/04/22 02:21:21;;;;;;;5.37;3.80;;;15.70;76.70;;;;;;10907334;32;20027;-74
2023/04/22 02:27:23;;;;;;;6.85;4.93;;;15.60;76.80;;;;;;10905286;32;20307;-74
2023/04/22 02:33:25;;;;;;;4.95;3.85;;;15.50;76.90;;;;;;10906249;32;20326;-74
2023/04/22 02:39:27;;;;;;;6.70;4.53;;;15.50;77.00;;;;;;10905980;32;20057;-74
2023/04/22 02:45:31;;;;;;;6.85;5.10;;;15.40;77.20;;;;;;10892519;32;20053;-73
2023/04/22 02:51:33;;;;;;;9.15;6.60;;;15.50;77.50;;;;;;10905444;32;20031;-73
2023/04/22 02:57:35;;;;;;;6.40;4.82;;;15.50;77.90;;;;;;10904385;32;20066;-74
2023/04/22 03:03:37;;;;;;;10.25;8.63;;;15.40;77.90;;;;;;10904216;32;20027;-73
2023/04/22 03:09:40;;;;;;;8.38;4.85;;;15.40;78.20;;;;;;10903965;32;20049;-73
2023/04/22 03:15:41;;;;;;;6.12;4.45;;;15.30;78.10;;;;;;10904819;32;20417;-73
2023/04/22 03:21:43;;;;;;;5.80;3.72;;;15.30;78.10;;;;;;10904606;32;20023;-74
2023/04/22 03:27:56;;;;;;;5.07;3.15;;;15.30;78.10;;;;;;10904500;32;20089;-73
2023/04/22 03:33:59;;;;;;;9.02;7.62;;;15.20;78.10;;;;;;10903374;32;20015;-73
2023/04/22 03:40:04;;;;;;;11.65;9.27;;;15.20;77.90;;;;;;10901868;32;20440;-74
2023/04/22 03:46:07;;;;;;;8.02;4.97;;;15.20;77.70;;;;;;10903515;32;20050;-74
2023/04/22 03:52:09;;;;;;;11.88;8.27;;;15.30;77.50;;;;;;10904124;32;20023;-72
2023/04/22 03:58:13;;;;;;;7.15;4.90;;;15.20;77.70;;;;;;10903331;32;20027;-71
2023/04/22 04:04:15;;;;;;;7.05;5.28;;;15.10;77.50;;;;;;10903156;32;20023;-71
2023/04/22 04:10:18;;;;;;;6.60;5.00;;;15.10;77.60;;;;;;10903100;32;20059;-72
2023/04/22 04:16:22;;;;;;;7.22;4.60;;;15.10;77.60;;;;;;10889636;32;20044;-71
2023/04/22 04:22:26;;;;;;;5.57;4.15;;;15.00;77.70;;;;;;10910243;32;20058;-72
2023/04/22 04:28:31;;;;;;;7.28;4.87;;;15.00;77.80;;;;;;10907346;32;20055;-72
2023/04/22 04:34:33;;;;;;;8.20;5.90;;;14.90;77.80;;;;;;10896148;32;20062;-72
2023/04/22 04:40:36;;;;;;;11.00;6.80;;;14.90;77.80;;;;;;10910966;32;20055;-71
2023/04/22 04:46:39;;;;;;;5.35;3.67;;;15.00;77.90;;;;;;10910191;32;20050;-71
2023/04/22 04:52:43;;;;;;;9.45;4.35;;;15.00;77.90;;;;;;10909815;32;20038;-72
2023/04/22 04:58:45;;;;;;;5.78;4.03;;;14.90;77.90;;;;;;10909127;32;20050;-71
2023/04/22 05:05:28;;;;;;;8.38;5.10;;;15.00;77.90;;;;;;10906252;32;20035;-71
2023/04/22 05:11:31;;;;;;;7.07;5.05;;;15.00;77.90;;;;;;10908598;32;20027;-72
2023/04/22 05:17:34;;;;;;;5.35;3.60;;;15.10;77.80;;;;;;10908471;32;20393;-71
2023/04/22 05:23:36;;;;;;;7.72;5.18;;;15.10;77.90;;;;;;10908094;32;20098;-71
2023/04/22 05:29:39;;;;;;;6.87;5.03;;;15.10;77.90;;;;;;10907441;32;20046;-71
2023/04/22 05:35:41;;;;;;;6.05;4.28;;;15.20;78.40;;;;;;10907700;32;20023;-71
2023/04/22 05:41:44;;;;;;;6.90;4.57;;;15.30;78.50;;;;;;10907457;32;20018;-71
2023/04/22 05:47:46;;;;;;;5.62;3.72;;;15.30;78.40;;;;;;10907404;32;20307;-71
2023/04/22 05:53:49;;;;;;;8.00;4.05;;;15.40;78.40;;;;;;10893119;32;20436;-71
2023/04/22 05:59:51;;;;;;;5.45;3.40;;;15.50;78.40;;;;;;10905628;32;20019;-71
2023/04/22 06:05:53;;;;;;;6.40;4.35;;;15.50;78.40;;;;;;10906552;32;20015;-73
2023/04/22 06:11:55;;;;;;;5.80;4.30;;;15.70;78.50;;;;;;10906176;32;20032;-73
2023/04/22 06:17:57;;;;;;;9.63;3.87;;;15.70;78.30;;;;;;10906096;32;20054;-73
2023/04/22 06:24:00;;;;;;;3.97;2.65;;;15.80;78.20;;;;;;10905964;32;20341;-74
2023/04/22 06:30:03;;;;;;;2.72;2.17;;;15.90;78.30;;;;;;10891807;32;20053;-73
2023/04/22 06:36:06;;;;;;;5.50;3.92;;;15.90;78.40;;;;;;10903635;32;20035;-73
2023/04/22 06:42:08;;;;;;;6.55;4.43;;;16.00;78.40;;;;;;10903597;32;20402;-73
2023/04/22 06:48:11;;;;;;;3.95;2.80;;;16.00;78.50;;;;;;10905027;32;20023;-73
2023/04/22 06:54:16;;;;;;;6.93;5.03;;;16.10;78.40;;;;;;10904702;32;20444;-73
2023/04/22 07:00:18;;;;;;;4.55;3.10;;;16.10;78.10;;;;;;10904888;32;20031;-72
2023/04/22 07:06:21;;;;;;;5.28;3.45;;;16.20;77.90;;;;;;10902101;32;20023;-72
2023/04/22 07:12:24;;;;;;;5.03;3.58;;;16.20;77.90;;;;;;10901607;32;20353;-71
2023/04/22 07:18:27;;;;;;;5.70;3.75;;;16.30;77.50;;;;;;10904112;32;20077;-72
2023/04/22 07:24:29;;;;;;;4.03;2.95;;;16.40;77.70;;;;;;10902833;32;20036;-71
2023/04/22 07:30:31;;;;;;;8.20;4.70;;;16.60;77.60;;;;;;10902774;32;20042;-72
2023/04/22 07:36:33;;;;;;;3.62;3.08;;;16.80;77.40;;;;;;10903619;32;20041;-72
2023/04/22 07:42:37;;;;;;;6.30;4.20;;;16.80;77.00;;;;;;10903279;32;20023;-72
2023/04/22 07:48:39;;;;;;;6.80;4.82;;;16.90;76.30;;;;;;10903458;32;20042;-72
2023/04/22 07:54:41;;;;;;;6.03;4.45;;;17.00;75.90;;;;;;10919619;27;20035;-72
2023/04/22 08:00:43;;;;;;;7.05;4.22;;;17.20;75.50;;;;;;10940614;32;20018;-73
2023/04/22 08:06:45;;;;;;;6.40;4.47;;;17.40;75.20;;;;;;10940243;32;20026;-74
2023/04/22 08:12:47;;;;;;;7.40;4.78;;;17.40;74.80;;;;;;10940442;32;20424;-74
2023/04/22 08:18:50;;;;;;;6.28;4.28;;;17.50;74.60;;;;;;10926904;32;20027;-74
2023/04/22 08:24:52;;;;;;;9.82;6.45;;;17.70;74.30;;;;;;10936661;32;20037;-74
2023/04/22 08:30:55;;;;;;;7.12;5.18;;;17.70;73.20;;;;;;10940348;32;20029;-74
2023/04/22 08:36:57;;;;;;;7.55;5.15;;;17.80;73.10;;;;;;10940092;32;20147;-73
2023/04/22 08:42:59;;;;;;;7.82;5.10;;;17.90;73.00;;;;;;10939890;32;20024;-74
2023/04/22 08:49:02;;;;;;;7.70;5.65;;;18.00;72.60;;;;;;10936798;32;20041;-74
2023/04/22 08:55:05;;;;;;;7.40;5.28;;;18.10;72.60;;;;;;10939807;32;20011;-74
2023/04/22 09:01:08;;;;;;;14.45;10.98;;;18.20;72.10;;;;;;10939376;32;20073;-74
2023/04/22 09:07:14;;;;;;;9.13;6.95;;;18.30;71.30;;;;;;10944921;32;20019;-74
2023/04/22 09:13:16;;;;;;;24.48;7.75;;;18.30;71.10;;;;;;10933500;32;20345;-74
2023/04/22 09:19:24;;;;;;;8.93;6.30;;;18.40;70.80;;;;;;10947325;32;20401;-73
2023/04/22 09:25:27;;;;;;;18.10;12.20;;;18.60;70.30;;;;;;10946753;32;20027;-73
2023/04/22 09:31:29;;;;;;;10.93;8.52;;;18.70;70.50;;;;;;10946785;32;20042;-73
2023/04/22 09:37:32;;;;;;;10.77;7.60;;;18.70;71.80;;;;;;10946587;32;20065;-74
2023/04/22 09:43:36;;;;;;;7.95;6.35;;;18.80;70.90;;;;;;10946445;32;20026;-74
2023/04/22 09:49:39;;;;;;;11.32;9.73;;;19.10;70.10;;;;;;10942663;32;20042;-74
2023/04/22 09:55:50;;;;;;;10.75;6.10;;;19.30;69.50;;;;;;10927116;32;20042;-75
2023/04/22 10:01:55;;;;;;;8.50;5.90;;;19.30;68.90;;;;;;10942463;32;20026;-75
2023/04/22 10:07:58;;;;;;;9.60;7.37;;;19.50;68.20;;;;;;10930851;32;20080;-72
2023/04/22 10:14:00;;;;;;;9.63;6.10;;;19.60;67.60;;;;;;10944585;32;20012;-73
2023/04/22 10:20:06;;;;;;;9.07;7.05;;;19.80;67.40;;;;;;10945421;32;20023;-73
2023/04/22 10:26:08;;;;;;;12.65;11.32;;;19.90;67.50;;;;;;10945736;32;20014;-76
2023/04/22 10:32:17;;;;;;;10.10;5.55;;;20.10;66.40;;;;;;10917335;32;20101;-74
2023/04/22 10:38:20;;;;;;;;;;;20.20;67.40;;;;;;10944995;32;20419;-71
2023/04/22 10:44:27;;;;;;;9.05;6.55;;;20.40;67.50;;;;;;10943580;32;19930;-72
2023/04/22 10:50:32;;;;;;;8.15;5.43;;;20.70;66.10;;;;;;10928368;32;20039;-72
2023/04/22 10:56:34;;;;;;;10.02;7.55;;;20.90;64.90;;;;;;10912787;32;20031;-72
2023/04/22 11:02:40;;;;;;;9.32;5.50;;;21.20;64.40;;;;;;10928725;32;20042;-74
2023/04/22 11:08:47;;;;;;;5.78;4.10;;;21.20;64.10;;;;;;10942971;32;20015;-74
2023/04/22 11:14:49;;;;;;;12.68;10.02;;;21.50;63.70;;;;;;10930656;32;20072;-75
2023/04/22 11:20:52;;;;;;;10.32;7.22;;;21.80;63.20;;;;;;10943212;32;20050;-74
2023/04/22 11:26:55;;;;;;;8.40;5.47;;;21.90;62.00;;;;;;10943336;32;20326;-75
2023/04/22 11:32:59;;;;;;;6.93;5.15;;;22.20;60.80;;;;;;10927921;32;20085;-74
2023/04/22 11:39:08;;;;;;;12.37;8.68;;;22.30;60.70;;;;;;10942073;32;20443;-72
2023/04/22 11:45:12;;;;;;;17.45;12.88;;;22.70;61.50;;;;;;10943089;32;20019;-72
2023/04/22 11:51:14;;;;;;;8.52;5.70;;;22.80;60.60;;;;;;10942777;32;20034;-72
2023/04/22 11:57:20;;;;;;;9.27;5.35;;;22.30;60.80;;;;;;10926224;32;20053;-72
2023/04/22 12:03:29;;;;;;;11.98;9.30;;;22.30;60.40;;;;;;10923206;32;20121;-72
2023/04/22 12:09:32;;;;;;;6.72;4.25;;;22.50;61.10;;;;;;10941686;32;20023;-72
2023/04/22 12:15:42;;;;;;;10.43;5.47;;;22.50;59.80;;;;;;10941609;32;20348;-72
2023/04/22 12:21:46;;;;;;;8.85;6.22;;;22.30;59.60;;;;;;10941530;32;20060;-71
2023/04/22 12:27:48;;;;;;;7.82;5.28;;;22.00;60.60;;;;;;10939250;32;20066;-71
2023/04/22 12:33:50;;;;;;;7.45;5.57;;;22.40;59.70;;;;;;10941696;32;20046;-71
2023/04/22 12:39:52;;;;;;;6.35;4.10;;;22.80;60.80;;;;;;10944434;32;20049;-72
2023/04/22 12:45:55;;;;;;;8.52;5.00;;;22.70;60.00;;;;;;10948586;32;20423;-72
2023/04/22 12:51:57;;;;;;;6.90;4.85;;;22.40;60.20;;;;;;10934036;32;20035;-71
2023/04/22 12:57:59;;;;;;;7.10;4.60;;;22.20;60.40;;;;;;10944180;32;20027;-72
2023/04/22 13:04:02;;;;;;;7.87;5.80;;;22.10;60.30;;;;;;10931006;32;20069;-71
2023/04/22 13:10:05;;;;;;;14.18;10.52;;;21.90;60.50;;;;;;10943167;32;20321;-72
2023/04/22 13:16:07;;;;;;;13.70;7.40;;;21.90;61.10;;;;;;10946695;32;20023;-72
2023/04/22 13:22:10;;;;;;;14.90;4.45;;;21.80;61.60;;;;;;10946848;32;20042;-72
2023/04/22 13:28:12;;;;;;;14.15;11.07;;;21.70;61.30;;;;;;10932942;32;20038;-72
2023/04/22 13:34:14;;;;;;;9.07;5.95;;;21.60;61.70;;;;;;10933618;32;20049;-71
2023/04/22 13:40:16;;;;;;;16.67;13.93;;;21.50;62.10;;;;;;10931924;32;20053;-71
2023/04/22 13:46:19;;;;;;;12.70;9.73;;;21.60;62.20;;;;;;10931826;32;20097;-71
2023/04/22 13:52:21;;;;;;;23.50;19.87;;;21.50;62.30;;;;;;10944208;32;20049;-71
2023/04/22 13:58:24;;;;;;;18.55;16.62;;;21.40;63.20;;;;;;10931214;32;20027;-72
2023/04/22 14:04:26;;;;;;;14.40;12.05;;;21.20;64.30;;;;;;10945251;32;20027;-72
2023/04/22 14:10:28;;;;;;;19.23;11.32;;;21.30;64.60;;;;;;10932519;32;20360;-72
2023/04/22 14:16:31;;;;;;;13.43;9.88;;;21.30;63.70;;;;;;10932073;32;20018;-72
2023/04/22 14:22:33;;;;;;;16.67;11.95;;;21.40;63.40;;;;;;10917141;32;20427;-73
2023/04/22 14:28:37;;;;;;;11.50;9.40;;;21.60;62.70;;;;;;10931330;32;20045;-73
2023/04/22 14:34:39;;;;;;;14.30;11.77;;;21.70;64.40;;;;;;10944686;32;20019;-73
2023/04/22 14:40:41;;;;;;;7.78;5.55;;;21.80;63.40;;;;;;10944577;32;20045;-74
2023/04/22 14:46:44;;;;;;;20.42;13.80;;;22.00;62.80;;;;;;10929090;32;20031;-72
2023/04/22 14:52:46;;;;;;;23.17;15.35;;;22.20;64.10;;;;;;10943221;32;20046;-72
2023/04/22 14:58:48;;;;;;;14.85;11.85;;;22.30;62.80;;;;;;10943826;32;20085;-71
2023/04/22 15:04:51;;;;;;;8.35;5.75;;;22.10;64.60;;;;;;10943429;32;20023;-71
2023/04/22 15:10:53;;;;;;;6.80;4.68;;;21.80;62.90;;;;;;10917063;32;20031;-71
2023/04/22 15:16:55;;;;;;;6.80;4.37;;;21.90;62.90;;;;;;10925554;32;20047;-71
2023/04/22 15:22:57;;;;;;;10.82;7.18;;;22.00;62.10;;;;;;10943224;32;20019;-70
2023/04/22 15:29:00;;;;;;;12.10;8.70;;;21.90;62.30;;;;;;10942636;32;20023;-71
2023/04/22 15:35:02;;;;;;;12.35;8.90;;;22.10;63.00;;;;;;10938122;32;20042;-70
2023/04/22 15:41:04;;;;;;;9.05;7.10;;;22.20;62.30;;;;;;10927475;32;20031;-70
2023/04/22 15:47:08;;;;;;;15.57;11.10;;;22.30;62.90;;;;;;10942521;32;20026;-70
2023/04/22 15:53:10;;;;;;;12.95;9.98;;;22.30;63.80;;;;;;10962795;27;20022;-70
2023/04/22 15:59:12;;;;;;;15.10;12.30;;;22.30;63.60;;;;;;10975924;32;20049;-70
2023/04/22 16:05:15;;;;;;;9.63;6.82;;;22.30;65.50;;;;;;10963995;32;20061;-71
2023/04/22 16:11:17;;;;;;;18.60;13.52;;;22.20;65.20;;;;;;10963520;32;20340;-71
2023/04/22 16:17:19;;;;;;;13.62;10.95;;;22.30;66.10;;;;;;10987320;32;20045;-70
2023/04/22 16:23:21;;;;;;;10.27;7.47;;;22.30;65.40;;;;;;10986659;32;20071;-71
2023/04/22 16:29:24;;;;;;;12.23;9.02;;;22.30;64.50;;;;;;10972662;32;20034;-72
2023/04/22 16:35:27;;;;;;;7.82;5.65;;;22.40;65.60;;;;;;10981261;32;20057;-70
2023/04/22 16:41:30;;;;;;;9.98;8.07;;;22.40;63.90;;;;;;10929984;32;20404;-71
2023/04/22 16:47:32;;;;;;;7.40;4.95;;;22.80;63.30;;;;;;10916747;32;20026;-71
2023/04/22 16:53:34;;;;;;;10.80;4.47;;;23.00;62.40;;;;;;10933480;32;20030;-71
2023/04/22 16:59:37;;;;;;;7.10;5.57;;;23.10;62.70;;;;;;10986374;32;20038;-71
2023/04/22 17:05:39;;;;;;;9.43;5.55;;;23.20;62.60;;;;;;10980651;32;20045;-71
2023/04/22 17:11:42;;;;;;;8.85;5.50;;;23.00;62.50;;;;;;10966075;32;20030;-71
2023/04/22 17:17:44;;;;;;;7.20;4.32;;;22.60;62.80;;;;;;10980290;32;20057;-71
2023/04/22 17:23:46;;;;;;;7.97;5.43;;;22.20;63.00;;;;;;10979335;32;20031;-71
2023/04/22 17:29:48;;;;;;;9.15;6.85;;;21.80;63.10;;;;;;10963837;32;20383;-71
2023/04/22 17:35:51;;;;;;;7.87;5.12;;;21.60;63.60;;;;;;10976093;32;20026;-71
2023/04/22 17:41:53;;;;;;;9.88;6.55;;;21.30;63.80;;;;;;10966266;32;20045;-71
2023/04/22 17:47:56;;;;;;;8.73;6.45;;;21.10;63.90;;;;;;10982613;32;20018;-71
2023/04/22 17:53:59;;;;;;;9.18;6.10;;;20.90;64.20;;;;;;10983655;32;20096;-71
2023/04/22 18:00:02;;;;;;;9.95;6.15;;;20.80;64.40;;;;;;10983291;32;20426;-71
2023/04/22 18:06:08;;;;;;;8.20;5.62;;;20.60;64.80;;;;;;10983467;32;20395;-71
2023/04/22 18:12:11;;;;;;;9.82;6.55;;;20.30;65.40;;;;;;10966655;32;20060;-71
2023/04/22 18:18:14;;;;;;;8.43;5.97;;;20.20;65.80;;;;;;10983377;32;20018;-71
2023/04/22 18:24:17;;;;;;;7.87;5.47;;;20.00;66.40;;;;;;10977374;32;20045;-71
2023/04/22 18:30:23;;;;;;;6.80;3.80;;;19.80;66.80;;;;;;10926565;32;20372;-71
2023/04/22 18:36:26;;;;;;;7.35;3.87;;;19.80;67.00;;;;;;10940061;32;20432;-71
2023/04/22 18:42:29;;;;;;;8.48;5.95;;;19.80;67.20;;;;;;10939337;32;20062;-71
2023/04/22 18:48:31;;;;;;;11.30;6.18;;;19.70;67.60;;;;;;10939599;32;20007;-71
2023/04/22 18:54:33;;;;;;;10.98;4.32;;;19.50;68.60;;;;;;10939402;32;20030;-71
2023/04/22 19:00:36;;;;;;;5.03;3.62;;;19.40;68.90;;;;;;10939266;32;20041;-71
2023/04/22 19:06:38;;;;;;;5.37;3.55;;;19.40;69.00;;;;;;10939149;32;20053;-71
2023/04/22 19:12:40;;;;;;;8.25;3.90;;;19.40;69.10;;;;;;10936124;32;20015;-71
2023/04/22 19:18:43;;;;;;;6.30;3.80;;;19.40;69.30;;;;;;10936242;32;20018;-72
2023/04/22 19:24:47;;;;;;;4.87;3.85;;;19.40;69.60;;;;;;10936396;32;20287;-71
2023/04/22 19:30:49;;;;;;;7.28;4.03;;;19.30;70.00;;;;;;10939189;32;20076;-71
2023/04/22 19:36:52;;;;;;;4.47;3.22;;;19.30;70.40;;;;;;10937939;32;20027;-74
2023/04/22 19:42:57;;;;;;;6.03;3.72;;;19.30;70.50;;;;;;10938014;32;20050;-74
2023/04/22 19:48:59;;;;;;;5.85;3.58;;;19.20;70.80;;;;;;10937478;32;20079;-74
2023/04/22 19:55:08;;;;;;;5.53;3.65;;;19.10;71.10;;;;;;10937390;32;20428;-74
2023/04/22 20:01:11;;;;;;;5.83;4.00;;;19.00;71.20;;;;;;10936918;32;20050;-74
2023/04/22 20:07:14;;;;;;;5.60;3.67;;;19.00;71.50;;;;;;10965890;32;20113;-74
2023/04/22 20:13:16;;;;;;;6.28;3.85;;;18.90;71.60;;;;;;10977768;32;20404;-74
2023/04/22 20:19:19;;;;;;;6.03;3.47;;;18.90;71.90;;;;;;10980606;32;20015;-74
2023/04/22 20:25:22;;;;;;;5.28;2.87;;;18.90;72.00;;;;;;10979369;32;20048;-74
2023/04/22 20:31:24;;;;;;;4.47;3.00;;;18.80;72.20;;;;;;10979923;32;20041;-74
2023/04/22 20:37:32;;;;;;;5.18;3.75;;;18.80;72.40;;;;;;10978905;32;20019;-74
2023/04/22 20:43:35;;;;;;;4.95;3.25;;;18.70;72.70;;;;;;10978057;32;20015;-72
2023/04/22 20:49:39;;;;;;;4.10;3.08;;;18.70;72.80;;;;;;10941534;32;20039;-71
2023/04/22 20:55:43;;;;;;;4.62;2.62;;;18.60;73.20;;;;;;10940660;32;20396;-72
2023/04/22 21:01:46;;;;;;;5.18;4.00;;;18.60;73.30;;;;;;10944666;32;20023;-71
2023/04/22 21:14:39;;;;;;;5.07;3.40;;;18.40;73.60;;;;;;10947773;32;20023;-74
2023/04/22 21:20:45;;;;;;;7.62;3.70;;;18.40;73.70;;;;;;10933430;32;20053;-74
2023/04/22 21:26:48;;;;;;;6.93;3.47;;;18.30;73.90;;;;;;10947848;32;20420;-74
2023/04/22 21:32:50;;;;;;;5.45;3.90;;;18.20;74.00;;;;;;10920489;32;20053;-74
2023/04/22 21:38:53;;;;;;;7.72;4.82;;;18.20;74.80;;;;;;10946583;32;20017;-74
2023/04/22 21:44:55;;;;;;;5.78;4.10;;;18.10;75.60;;;;;;10945641;32;20038;-73
2023/04/22 21:50:58;;;;;;;5.75;3.30;;;18.10;76.10;;;;;;10945972;32;20041;-71
2023/04/22 21:57:01;;;;;;;5.97;4.40;;;18.00;75.70;;;;;;10946605;32;20061;-71
2023/04/22 22:03:03;;;;;;;5.70;4.18;;;17.90;75.60;;;;;;10946714;32;20385;-71
2023/04/22 22:09:06;;;;;;;5.20;3.87;;;17.90;76.00;;;;;;10946542;32;20019;-71
2023/04/22 22:15:08;;;;;;;5.60;3.85;;;17.80;76.20;;;;;;10943786;32;20045;-71
2023/04/22 22:21:11;;;;;;;7.15;4.18;;;17.80;76.20;;;;;;10940310;32;20019;-71
2023/04/22 22:27:13;;;;;;;6.15;4.40;;;17.80;76.20;;;;;;10931740;32;20045;-71
2023/04/22 22:33:17;;;;;;;6.20;5.05;;;17.70;76.20;;;;;;10945121;32;20045;-71
2023/04/22 22:39:22;;;;;;;6.85;5.32;;;17.60;76.80;;;;;;10944947;32;20041;-71
2023/04/22 22:45:24;;;;;;;5.75;4.50;;;17.60;76.90;;;;;;10945138;32;20045;-71
2023/04/22 22:51:28;;;;;;;7.85;5.62;;;17.50;76.70;;;;;;10943505;32;20454;-71
2023/04/22 22:57:30;;;;;;;6.62;4.62;;;17.50;77.00;;;;;;10940677;32;20041;-71
2023/04/22 23:03:37;;;;;;;4.93;4.28;;;17.40;76.90;;;;;;10944476;32;20329;-71
2023/04/22 23:09:41;;;;;;;7.05;4.93;;;17.40;76.80;;;;;;10942340;32;20042;-71
2023/04/22 23:15:43;;;;;;;5.85;3.85;;;17.40;77.00;;;;;;10940828;32;20345;-71
2023/04/22 23:21:46;;;;;;;8.95;3.42;;;17.30;76.90;;;;;;10941535;32;20333;-71
2023/04/22 23:27:50;;;;;;;8.43;5.40;;;17.30;76.90;;;;;;10943421;32;20022;-71
2023/04/22 23:34:03;;;;;;;4.45;2.97;;;17.30;76.90;;;;;;10943136;32;20011;-71
2023/04/22 23:40:05;;;;;;;4.53;3.35;;;17.30;77.30;;;;;;10943317;32;20061;-71
2023/04/22 23:46:07;;;;;;;4.80;3.58;;;17.30;77.40;;;;;;10942296;32;20015;-71
2023/04/22 23:52:11;;;;;;;14.13;4.45;;;17.20;77.30;;;;;;10729839;27;7102153;-71
2023/04/22 23:58:14;;;;;;;8.95;5.10;;;17.10;77.50;;;;;;10941348;32;20019;-71
